sensor_id;sensor_type;location;lat;lon;timestamp;pressure;altitude;pressure_sealevel;temperature;humidity
62418;BME280;48456;54.242;10.280;2023-07-09T00:00:02;101938.44;;;14.60;100.00
62418;BME280;48456;54.242;10.280;2023-07-09T00:02:29;101943.78;;;14.57;100.00
62418;BME280;48456;54.242;10.280;2023-07-09T00:04:55;101948.22;;;14.52;100.00
62418;BME280;48456;54.242;10.280;2023-07-09T00:07:29;101946.44;;;14.46;100.00
62418;BME280;48456;54.242;10.280;2023-07-09T00:09:56;101935.84;;;14.38;100.00
62418;BME280;48456;54.242;10.280;2023-07-09T00:12:23;101933.19;;;14.31;100.00
62418;BME280;48456;54.242;10.280;2023-07-09T00:14:49;101929.66;;;14.24;100.00
62418;BME280;48456;54.242;10.280;2023-07-09T00:17:37;101931.44;;;14.19;100.00
62418;BME280;48456;54.242;10.280;2023-07-09T00:20:04;101939.41;;;14.22;100.00
62418;BME280;48456;54.242;10.280;2023-07-09T00:22:31;101936.75;;;14.23;100.00
62418;BME280;48456;54.242;10.280;2023-07-09T00:24:58;101951.81;;;14.32;100.00
62418;BME280;48456;54.242;10.280;2023-07-09T00:27:25;101955.38;;;14.39;100.00
62418;BME280;48456;54.242;10.280;2023-07-09T00:29:53;101955.38;;;14.39;100.00
62418;BME280;48456;54.242;10.280;2023-07-09T00:32:20;101943.84;;;14.34;100.00
62418;BME280;48456;54.242;10.280;2023-07-09T00:34:47;101951.81;;;14.27;100.00
62418;BME280;48456;54.242;10.280;2023-07-09T00:37:17;101954.47;;;14.24;100.00
62418;BME280;48456;54.242;10.280;2023-07-09T00:39:44;101959.81;;;14.24;100.00
62418;BME280;48456;54.242;10.280;2023-07-09T00:42:11;101955.38;;;14.20;100.00
62418;BME280;48456;54.242;10.280;2023-07-09T00:44:38;101950.06;;;14.14;100.00
62418;BME280;48456;54.242;10.280;2023-07-09T00:47:12;101956.28;;;14.13;100.00
62418;BME280;48456;54.242;10.280;2023-07-09T00:49:43;101955.38;;;14.09;100.00
62418;BME280;48456;54.242;10.280;2023-07-09T00:52:21;101964.28;;;14.02;100.00
62418;BME280;48456;54.242;10.280;2023-07-09T00:54:48;101951.84;;;13.96;100.00
62418;BME280;48456;54.242;10.280;2023-07-09T00:57:17;101951.84;;;13.92;100.00
62418;BME280;48456;54.242;10.280;2023-07-09T00:59:46;101944.75;;;13.84;100.00
62418;BME280;48456;54.242;10.280;2023-07-09T01:02:14;101951.84;;;13.82;100.00
62418;BME280;48456;54.242;10.280;2023-07-09T01:04:41;101947.44;;;13.83;100.00
62418;BME280;48456;54.242;10.280;2023-07-09T01:07:07;101941.22;;;13.85;100.00
62418;BME280;48456;54.242;10.280;2023-07-09T01:09:34;101944.75;;;13.89;100.00
62418;BME280;48456;54.242;10.280;2023-07-09T01:12:07;101946.53;;;13.95;100.00
62418;BME280;48456;54.242;10.280;2023-07-09T01:14:34;101951.84;;;13.95;100.00
62418;BME280;48456;54.242;10.280;2023-07-09T01:17:03;101950.06;;;13.89;100.00
62418;BME280;48456;54.242;10.280;2023-07-09T01:19:36;101951.84;;;13.82;100.00
62418;BME280;48456;54.242;10.280;2023-07-09T01:22:10;101952.72;;;13.80;100.00
62418;BME280;48456;54.242;10.280;2023-07-09T01:27:17;101953.63;;;13.68;100.00
62418;BME280;48456;54.242;10.280;2023-07-09T01:29:44;101951.84;;;13.63;100.00
62418;BME280;48456;54.242;10.280;2023-07-09T01:32:15;101949.16;;;13.59;100.00
62418;BME280;48456;54.242;10.280;2023-07-09T01:34:45;101955.38;;;13.56;100.00
62418;BME280;48456;54.242;10.280;2023-07-09T01:37:17;101951.81;;;13.57;100.00
62418;BME280;48456;54.242;10.280;2023-07-09T01:43:06;101954.47;;;13.56;100.00
62418;BME280;48456;54.242;10.280;2023-07-09T01:45:33;101956.22;;;13.49;100.00
62418;BME280;48456;54.242;10.280;2023-07-09T01:48:00;101954.41;;;13.45;100.00
62418;BME280;48456;54.242;10.280;2023-07-09T01:50:27;101951.75;;;13.42;100.00
62418;BME280;48456;54.242;10.280;2023-07-09T01:52:53;101949.09;;;13.37;100.00
62418;BME280;48456;54.242;10.280;2023-07-09T01:55:21;101953.50;;;13.38;100.00
62418;BME280;48456;54.242;10.280;2023-07-09T01:57:47;101954.41;;;13.37;100.00
62418;BME280;48456;54.242;10.280;2023-07-09T02:00:15;101950.84;;;13.32;100.00
62418;BME280;48456;54.242;10.280;2023-07-09T02:02:43;101949.94;;;13.30;100.00
62418;BME280;48456;54.242;10.280;2023-07-09T02:05:10;101943.75;;;13.24;100.00
62418;BME280;48456;54.242;10.280;2023-07-09T02:07:37;101951.69;;;13.23;100.00
62418;BME280;48456;54.242;10.280;2023-07-09T02:10:03;101948.16;;;13.21;100.00
62418;BME280;48456;54.242;10.280;2023-07-09T02:12:30;101946.38;;;13.20;100.00
62418;BME280;48456;54.242;10.280;2023-07-09T02:14:56;101945.50;;;13.18;100.00
62418;BME280;48456;54.242;10.280;2023-07-09T02:17:22;101948.16;;;13.18;100.00
62418;BME280;48456;54.242;10.280;2023-07-09T02:19:49;101951.69;;;13.20;100.00
62418;BME280;48456;54.242;10.280;2023-07-09T02:22:15;101946.38;;;13.20;100.00
62418;BME280;48456;54.242;10.280;2023-07-09T02:24:42;101941.94;;;13.12;100.00
62418;BME280;48456;54.242;10.280;2023-07-09T02:27:08;101935.72;;;13.09;100.00
62418;BME280;48456;54.242;10.280;2023-07-09T02:29:36;101938.38;;;13.06;100.00
62418;BME280;48456;54.242;10.280;2023-07-09T02:32:04;101941.91;;;13.02;100.00
62418;BME280;48456;54.242;10.280;2023-07-09T02:34:31;101945.41;;;12.96;100.00
62418;BME280;48456;54.242;10.280;2023-07-09T02:36:58;101943.63;;;12.98;100.00
62418;BME280;48456;54.242;10.280;2023-07-09T02:39:25;101946.34;;;13.04;100.00
62418;BME280;48456;54.242;10.280;2023-07-09T02:41:51;101940.16;;;13.07;100.00
62418;BME280;48456;54.242;10.280;2023-07-09T02:44:18;101939.25;;;13.05;100.00
62418;BME280;48456;54.242;10.280;2023-07-09T02:46:44;101935.69;;;13.01;100.00
62418;BME280;48456;54.242;10.280;2023-07-09T02:49:12;101940.09;;;12.99;100.00
62418;BME280;48456;54.242;10.280;2023-07-09T02:51:39;101937.44;;;12.93;100.00
62418;BME280;48456;54.242;10.280;2023-07-09T02:54:05;101930.34;;;12.89;100.00
62418;BME280;48456;54.242;10.280;2023-07-09T02:56:32;101938.31;;;12.90;100.00
62418;BME280;48456;54.242;10.280;2023-07-09T02:58:58;101943.59;;;12.85;100.00
62418;BME280;48456;54.242;10.280;2023-07-09T03:01:25;101944.47;;;12.83;100.00
62418;BME280;48456;54.242;10.280;2023-07-09T03:03:56;101942.66;;;12.79;100.00
62418;BME280;48456;54.242;10.280;2023-07-09T03:06:24;101955.97;;;12.83;100.00
62418;BME280;48456;54.242;10.280;2023-07-09T03:08:51;101950.66;;;12.82;100.00
62418;BME280;48456;54.242;10.280;2023-07-09T03:11:18;101965.69;;;12.81;100.00
62418;BME280;48456;54.242;10.280;2023-07-09T03:13:45;101958.63;;;12.83;100.00
62418;BME280;48456;54.242;10.280;2023-07-09T03:16:11;101960.41;;;12.84;100.00
62418;BME280;48456;54.242;10.280;2023-07-09T03:18:38;101955.97;;;12.82;100.00
62418;BME280;48456;54.242;10.280;2023-07-09T03:21:04;101956.84;;;12.84;100.00
62418;BME280;48456;54.242;10.280;2023-07-09T03:23:31;101958.66;;;12.90;100.00
62418;BME280;48456;54.242;10.280;2023-07-09T03:25:57;101958.66;;;12.91;100.00
62418;BME280;48456;54.242;10.280;2023-07-09T03:28:26;101964.88;;;12.92;100.00
62418;BME280;48456;54.242;10.280;2023-07-09T03:30:53;101971.09;;;12.97;100.00
62418;BME280;48456;54.242;10.280;2023-07-09T03:33:20;101973.75;;;12.98;100.00
62418;BME280;48456;54.242;10.280;2023-07-09T03:35:46;101967.53;;;12.96;100.00
62418;BME280;48456;54.242;10.280;2023-07-09T03:38:13;101971.13;;;13.02;100.00
62418;BME280;48456;54.242;10.280;2023-07-09T03:40:40;101965.78;;;13.03;100.00
62418;BME280;48456;54.242;10.280;2023-07-09T03:43:07;101958.72;;;13.04;100.00
62418;BME280;48456;54.242;10.280;2023-07-09T03:45:35;101965.81;;;13.09;100.00
62418;BME280;48456;54.242;10.280;2023-07-09T03:48:01;101961.41;;;13.16;100.00
62418;BME280;48456;54.242;10.280;2023-07-09T03:50:28;101961.44;;;13.22;100.00
62418;BME280;48456;54.242;10.280;2023-07-09T03:52:55;101950.81;;;13.24;100.00
62418;BME280;48456;54.242;10.280;2023-07-09T03:55:21;101965.91;;;13.25;100.00
62418;BME280;48456;54.242;10.280;2023-07-09T03:57:47;101961.47;;;13.32;100.00
62418;BME280;48456;54.242;10.280;2023-07-09T04:00:14;101965.91;;;13.39;100.00
62418;BME280;48456;54.242;10.280;2023-07-09T04:02:40;101962.38;;;13.45;100.00
62418;BME280;48456;54.242;10.280;2023-07-09T04:05:10;101957.13;;;13.48;100.00
62418;BME280;48456;54.242;10.280;2023-07-09T04:07:36;101959.78;;;13.57;100.00
62418;BME280;48456;54.242;10.280;2023-07-09T04:10:04;101959.81;;;13.60;100.00
62418;BME280;48456;54.242;10.280;2023-07-09T04:12:30;101962.44;;;13.65;100.00
62418;BME280;48456;54.242;10.280;2023-07-09T04:14:57;101951.81;;;13.67;100.00
62418;BME280;48456;54.242;10.280;2023-07-09T04:17:23;101957.16;;;13.71;100.00
62418;BME280;48456;54.242;10.280;2023-07-09T04:19:50;101960.69;;;13.84;100.00
62418;BME280;48456;54.242;10.280;2023-07-09T04:22:17;101958.94;;;13.99;100.00
62418;BME280;48456;54.242;10.280;2023-07-09T04:24:43;101959.84;;;14.07;100.00
62418;BME280;48456;54.242;10.280;2023-07-09T04:27:10;101956.25;;;14.16;100.00
62418;BME280;48456;54.242;10.280;2023-07-09T04:29:36;101956.25;;;14.28;100.00
62418;BME280;48456;54.242;10.280;2023-07-09T04:32:05;101955.38;;;14.37;100.00
62418;BME280;48456;54.242;10.280;2023-07-09T04:34:32;101951.78;;;14.48;100.00
62418;BME280;48456;54.242;10.280;2023-07-09T04:36:58;101949.13;;;14.57;100.00
62418;BME280;48456;54.242;10.280;2023-07-09T04:39:25;101956.19;;;14.67;100.00
62418;BME280;48456;54.242;10.280;2023-07-09T04:41:51;101953.47;;;14.75;100.00
62418;BME280;48456;54.242;10.280;2023-07-09T04:44:18;101956.13;;;14.86;100.00
62418;BME280;48456;54.242;10.280;2023-07-09T04:46:44;101960.56;;;14.98;100.00
62418;BME280;48456;54.242;10.280;2023-07-09T04:49:10;101953.41;;;15.06;100.00
62418;BME280;48456;54.242;10.280;2023-07-09T04:51:38;101963.13;;;15.20;100.00
62418;BME280;48456;54.242;10.280;2023-07-09T04:54:04;101952.41;;;15.31;100.00
62418;BME280;48456;54.242;10.280;2023-07-09T04:56:31;101949.66;;;15.40;100.00
62418;BME280;48456;54.242;10.280;2023-07-09T04:58:57;101942.50;;;15.49;100.00
62418;BME280;48456;54.242;10.280;2023-07-09T05:01:24;101946.00;;;15.57;100.00
62418;BME280;48456;54.242;10.280;2023-07-09T05:03:50;101951.25;;;15.71;100.00
62418;BME280;48456;54.242;10.280;2023-07-09T05:06:17;101947.56;;;15.86;100.00
62418;BME280;48456;54.242;10.280;2023-07-09T05:08:43;101948.44;;;15.94;100.00
62418;BME280;48456;54.242;10.280;2023-07-09T05:11:09;101947.41;;;16.08;100.00
62418;BME280;48456;54.242;10.280;2023-07-09T05:13:38;101945.53;;;16.19;100.00
62418;BME280;48456;54.242;10.280;2023-07-09T05:16:05;101942.81;;;16.26;100.00
62418;BME280;48456;54.242;10.280;2023-07-09T05:18:32;101943.50;;;16.43;100.00
62418;BME280;48456;54.242;10.280;2023-07-09T05:20:58;101954.00;;;16.62;100.00
62418;BME280;48456;54.242;10.280;2023-07-09T05:23:24;101948.53;;;16.73;100.00
62418;BME280;48456;54.242;10.280;2023-07-09T05:25:57;101947.53;;;16.82;100.00
62418;BME280;48456;54.242;10.280;2023-07-09T05:28:24;101947.44;;;16.89;100.00
62418;BME280;48456;54.242;10.280;2023-07-09T05:30:51;101952.69;;;16.99;100.00
62418;BME280;48456;54.242;10.280;2023-07-09T05:33:18;101948.97;;;17.11;100.00
62418;BME280;48456;54.242;10.280;2023-07-09T05:35:47;101953.31;;;17.21;100.00
62418;BME280;48456;54.242;10.280;2023-07-09T05:38:14;101946.94;;;17.30;100.00
62418;BME280;48456;54.242;10.280;2023-07-09T05:40:41;101942.53;;;17.27;100.00
62418;BME280;48456;54.242;10.280;2023-07-09T05:43:08;101955.69;;;17.42;100.00
62418;BME280;48456;54.242;10.280;2023-07-09T05:45:35;101949.28;;;17.53;100.00
62418;BME280;48456;54.242;10.280;2023-07-09T05:48:01;101955.22;;;17.73;100.00
62418;BME280;48456;54.242;10.280;2023-07-09T05:50:28;101960.28;;;17.91;100.00
62418;BME280;48456;54.242;10.280;2023-07-09T05:52:54;101953.75;;;18.10;100.00
62418;BME280;48456;54.242;10.280;2023-07-09T05:55:21;101954.38;;;18.26;100.00
62418;BME280;48456;54.242;10.280;2023-07-09T05:57:49;101957.81;;;18.33;100.00
62418;BME280;48456;54.242;10.280;2023-07-09T06:00:16;101956.84;;;18.37;100.00
62418;BME280;48456;54.242;10.280;2023-07-09T06:02:42;101955.88;;;18.41;100.00
62418;BME280;48456;54.242;10.280;2023-07-09T06:05:09;101958.34;;;18.52;100.00
62418;BME280;48456;54.242;10.280;2023-07-09T06:07:37;101952.03;;;18.56;100.00
62418;BME280;48456;54.242;10.280;2023-07-09T06:10:05;101955.97;;;18.82;100.00
62418;BME280;48456;54.242;10.280;2023-07-09T06:12:31;101958.19;;;19.07;100.00
62418;BME280;48456;54.242;10.280;2023-07-09T06:14:58;101956.94;;;19.24;100.00
62418;BME280;48456;54.242;10.280;2023-07-09T06:17:24;101958.47;;;19.34;100.00
62418;BME280;48456;54.242;10.280;2023-07-09T06:19:51;101958.16;;;19.48;100.00
62418;BME280;48456;54.242;10.280;2023-07-09T06:22:17;101963.72;;;19.77;100.00
62418;BME280;48456;54.242;10.280;2023-07-09T06:24:46;101961.75;;;19.85;100.00
62418;BME280;48456;54.242;10.280;2023-07-09T06:27:12;101962.19;;;20.04;100.00
62418;BME280;48456;54.242;10.280;2023-07-09T06:29:39;101960.72;;;20.25;100.00
62418;BME280;48456;54.242;10.280;2023-07-09T06:32:05;101954.03;;;20.42;100.00
62418;BME280;48456;54.242;10.280;2023-07-09T06:34:32;101962.13;;;20.72;100.00
62418;BME280;48456;54.242;10.280;2023-07-09T06:36:58;101954.88;;;20.76;100.00
62418;BME280;48456;54.242;10.280;2023-07-09T06:39:25;101953.38;;;20.97;100.00
62418;BME280;48456;54.242;10.280;2023-07-09T06:41:51;101947.69;;;21.08;100.00
62418;BME280;48456;54.242;10.280;2023-07-09T06:44:18;101955.22;;;21.27;100.00
62418;BME280;48456;54.242;10.280;2023-07-09T06:46:44;101960.84;;;21.48;100.00
62418;BME280;48456;54.242;10.280;2023-07-09T06:49:12;101953.16;;;21.64;100.00
62418;BME280;48456;54.242;10.280;2023-07-09T06:51:39;101953.34;;;21.86;100.00
62418;BME280;48456;54.242;10.280;2023-07-09T06:54:05;101952.13;;;21.95;100.00
62418;BME280;48456;54.242;10.280;2023-07-09T06:56:32;101946.31;;;22.07;100.00
62418;BME280;48456;54.242;10.280;2023-07-09T06:58:59;101946.91;;;22.17;100.00
62418;BME280;48456;54.242;10.280;2023-07-09T07:01:25;101938.00;;;22.15;100.00
62418;BME280;48456;54.242;10.280;2023-07-09T07:03:51;101936.81;;;22.23;100.00
62418;BME280;48456;54.242;10.280;2023-07-09T07:06:18;101935.34;;;22.39;100.00
62418;BME280;48456;54.242;10.280;2023-07-09T07:08:44;101935.88;;;22.49;100.00
62418;BME280;48456;54.242;10.280;2023-07-09T07:11:11;101930.41;;;22.52;100.00
62418;BME280;48456;54.242;10.280;2023-07-09T07:13:38;101935.28;;;22.66;100.00
62418;BME280;48456;54.242;10.280;2023-07-09T07:16:06;101927.66;;;22.78;100.00
62418;BME280;48456;54.242;10.280;2023-07-09T07:18:33;101929.91;;;22.90;100.00
62418;BME280;48456;54.242;10.280;2023-07-09T07:21:00;101928.47;;;23.04;100.00
62418;BME280;48456;54.242;10.280;2023-07-09T07:23:26;101937.78;;;23.19;100.00
62418;BME280;48456;54.242;10.280;2023-07-09T07:25:53;101930.81;;;23.37;100.00
62418;BME280;48456;54.242;10.280;2023-07-09T07:28:20;101935.06;;;23.43;100.00
62418;BME280;48456;54.242;10.280;2023-07-09T07:30:57;101925.19;;;23.64;100.00
62418;BME280;48456;54.242;10.280;2023-07-09T07:33:23;101926.56;;;23.74;100.00
62418;BME280;48456;54.242;10.280;2023-07-09T07:35:49;101925.78;;;23.93;100.00
62418;BME280;48456;54.242;10.280;2023-07-09T07:38:36;101925.53;;;23.99;100.00
62418;BME280;48456;54.242;10.280;2023-07-09T07:41:02;101925.53;;;23.99;100.00
62418;BME280;48456;54.242;10.280;2023-07-09T07:43:29;101922.50;;;24.28;100.00
62418;BME280;48456;54.242;10.280;2023-07-09T07:45:55;101923.41;;;24.29;100.00
62418;BME280;48456;54.242;10.280;2023-07-09T07:48:22;101925.03;;;24.33;100.00
62418;BME280;48456;54.242;10.280;2023-07-09T07:50:48;101929.47;;;24.34;100.00
62418;BME280;48456;54.242;10.280;2023-07-09T07:53:15;101930.78;;;24.65;100.00
62418;BME280;48456;54.242;10.280;2023-07-09T07:55:42;101932.97;;;24.76;100.00
62418;BME280;48456;54.242;10.280;2023-07-09T07:58:10;101929.00;;;24.85;100.00
62418;BME280;48456;54.242;10.280;2023-07-09T08:00:37;101927.31;;;25.01;100.00
62418;BME280;48456;54.242;10.280;2023-07-09T08:03:06;101937.84;;;25.08;100.00
62418;BME280;48456;54.242;10.280;2023-07-09T08:05:32;101939.47;;;25.12;100.00
62418;BME280;48456;54.242;10.280;2023-07-09T08:07:59;101937.78;;;24.90;100.00
62418;BME280;48456;54.242;10.280;2023-07-09T08:10:25;101939.31;;;24.96;100.00
62418;BME280;48456;54.242;10.280;2023-07-09T08:12:52;101933.25;;;25.10;100.00
62418;BME280;48456;54.242;10.280;2023-07-09T08:15:23;101934.84;;;25.14;100.00
62418;BME280;48456;54.242;10.280;2023-07-09T08:17:50;101926.03;;;25.28;100.00
62418;BME280;48456;54.242;10.280;2023-07-09T08:20:16;101922.09;;;25.35;100.00
62418;BME280;48456;54.242;10.280;2023-07-09T08:22:43;101922.31;;;25.30;100.00
62418;BME280;48456;54.242;10.280;2023-07-09T08:25:10;101927.78;;;25.48;100.00
62418;BME280;48456;54.242;10.280;2023-07-09T08:27:36;101914.38;;;25.45;100.00
62418;BME280;48456;54.242;10.280;2023-07-09T08:30:03;101910.56;;;25.49;100.00
62418;BME280;48456;54.242;10.280;2023-07-09T08:32:29;101911.94;;;25.58;100.00
62418;BME280;48456;54.242;10.280;2023-07-09T08:34:56;101905.75;;;25.74;100.00
62418;BME280;48456;54.242;10.280;2023-07-09T08:37:42;101912.22;;;25.71;100.00
62418;BME280;48456;54.242;10.280;2023-07-09T08:40:12;101914.22;;;25.85;100.00
62418;BME280;48456;54.242;10.280;2023-07-09T08:42:43;101905.63;;;25.77;100.00
62418;BME280;48456;54.242;10.280;2023-07-09T08:50:46;101915.19;;;25.84;100.00
62418;BME280;48456;54.242;10.280;2023-07-09T08:53:16;101907.34;;;25.95;100.00
62418;BME280;48456;54.242;10.280;2023-07-09T08:55:45;101917.16;;;26.16;100.00
62418;BME280;48456;54.242;10.280;2023-07-09T08:58:15;101911.25;;;26.25;100.00
62418;BME280;48456;54.242;10.280;2023-07-09T09:05:49;101911.88;;;26.48;100.00
62418;BME280;48456;54.242;10.280;2023-07-09T09:08:26;101911.16;;;26.44;97.99
62418;BME280;48456;54.242;10.280;2023-07-09T09:10:58;101904.53;;;26.50;100.00
62418;BME280;48456;54.242;10.280;2023-07-09T09:13:30;101906.59;;;26.79;100.00
62418;BME280;48456;54.242;10.280;2023-07-09T09:15:58;101902.97;;;26.78;97.49
62418;BME280;48456;54.242;10.280;2023-07-09T09:18:27;101908.53;;;26.93;100.00
62418;BME280;48456;54.242;10.280;2023-07-09T09:23:25;101912.84;;;26.97;100.00
62418;BME280;48456;54.242;10.280;2023-07-09T09:25:55;101911.97;;;27.13;97.04
62418;BME280;48456;54.242;10.280;2023-07-09T09:28:39;101908.28;;;27.14;96.70
62418;BME280;48456;54.242;10.280;2023-07-09T09:31:07;101915.88;;;27.39;100.00
62418;BME280;48456;54.242;10.280;2023-07-09T09:33:40;101910.72;;;27.18;92.05
62418;BME280;48456;54.242;10.280;2023-07-09T09:36:41;101901.53;;;27.05;92.54
62418;BME280;48456;54.242;10.280;2023-07-09T09:39:01;101910.56;;;27.21;98.12
62418;BME280;48456;54.242;10.280;2023-07-09T09:41:31;101901.00;;;27.46;100.00
62418;BME280;48456;54.242;10.280;2023-07-09T09:44:00;101901.94;;;27.45;91.33
62418;BME280;48456;54.242;10.280;2023-07-09T09:46:30;101905.59;;;27.76;98.40
62418;BME280;48456;54.242;10.280;2023-07-09T09:49:00;101906.91;;;27.69;95.46
62418;BME280;48456;54.242;10.280;2023-07-09T09:51:27;101908.59;;;27.56;87.99
62418;BME280;48456;54.242;10.280;2023-07-09T09:53:58;101904.00;;;27.56;83.52
62418;BME280;48456;54.242;10.280;2023-07-09T09:56:27;101902.44;;;27.68;87.01
62418;BME280;48456;54.242;10.280;2023-07-09T09:58:55;101893.97;;;28.04;80.50
62418;BME280;48456;54.242;10.280;2023-07-09T10:01:25;101895.28;;;28.12;86.29
62418;BME280;48456;54.242;10.280;2023-07-09T10:03:54;101890.66;;;28.29;86.43
62418;BME280;48456;54.242;10.280;2023-07-09T10:06:24;101899.22;;;28.37;89.09
62418;BME280;48456;54.242;10.280;2023-07-09T10:09:00;101887.44;;;28.51;84.93
62418;BME280;48456;54.242;10.280;2023-07-09T10:11:48;101892.31;;;28.61;95.62
62418;BME280;48456;54.242;10.280;2023-07-09T10:16:44;101888.41;;;28.50;80.74
62418;BME280;48456;54.242;10.280;2023-07-09T10:19:17;101884.16;;;28.61;77.07
62418;BME280;48456;54.242;10.280;2023-07-09T10:26:48;101892.56;;;28.85;76.15
62418;BME280;48456;54.242;10.280;2023-07-09T10:31:55;101880.00;;;29.25;74.04
62418;BME280;48456;54.242;10.280;2023-07-09T10:39:37;101877.25;;;29.80;67.51
62418;BME280;48456;54.242;10.280;2023-07-09T10:42:06;101882.84;;;30.43;65.13
62418;BME280;48456;54.242;10.280;2023-07-09T10:44:41;101885.66;;;30.81;60.04
62418;BME280;48456;54.242;10.280;2023-07-09T10:47:26;101878.06;;;31.46;61.47
62418;BME280;48456;54.242;10.280;2023-07-09T10:49:55;101868.81;;;32.31;58.08
62418;BME280;48456;54.242;10.280;2023-07-09T10:52:25;101874.28;;;32.19;53.70
62418;BME280;48456;54.242;10.280;2023-07-09T10:57:30;101866.56;;;32.59;47.26
62418;BME280;48456;54.242;10.280;2023-07-09T10:59:56;101864.66;;;33.05;45.85
62418;BME280;48456;54.242;10.280;2023-07-09T11:02:25;101857.31;;;33.38;51.52
62418;BME280;48456;54.242;10.280;2023-07-09T11:04:56;101864.13;;;33.87;43.51
62418;BME280;48456;54.242;10.280;2023-07-09T11:10:29;101862.72;;;34.45;47.07
62418;BME280;48456;54.242;10.280;2023-07-09T11:15:25;101865.28;;;34.37;41.11
62418;BME280;48456;54.242;10.280;2023-07-09T11:17:54;101857.69;;;34.60;44.80
62418;BME280;48456;54.242;10.280;2023-07-09T11:20:36;101856.81;;;34.18;41.84
62418;BME280;48456;54.242;10.280;2023-07-09T11:23:18;101855.00;;;34.70;43.92
62418;BME280;48456;54.242;10.280;2023-07-09T11:25:45;101857.25;;;34.55;44.45
62418;BME280;48456;54.242;10.280;2023-07-09T11:28:13;101848.53;;;34.81;44.80
62418;BME280;48456;54.242;10.280;2023-07-09T11:30:46;101856.81;;;34.50;39.79
62418;BME280;48456;54.242;10.280;2023-07-09T11:33:18;101852.63;;;34.45;43.83
62418;BME280;48456;54.242;10.280;2023-07-09T11:35:51;101862.44;;;34.99;43.17
62418;BME280;48456;54.242;10.280;2023-07-09T11:38:22;101858.97;;;35.07;41.79
62418;BME280;48456;54.242;10.280;2023-07-09T11:40:53;101846.47;;;34.63;40.49
62418;BME280;48456;54.242;10.280;2023-07-09T11:43:33;101853.59;;;34.95;41.78
62418;BME280;48456;54.242;10.280;2023-07-09T11:46:18;101847.34;;;34.73;41.72
62418;BME280;48456;54.242;10.280;2023-07-09T11:48:47;101844.53;;;34.54;39.78
62418;BME280;48456;54.242;10.280;2023-07-09T11:51:16;101843.09;;;35.20;43.74
62418;BME280;48456;54.242;10.280;2023-07-09T11:53:51;101848.44;;;35.32;38.98
62418;BME280;48456;54.242;10.280;2023-07-09T11:56:19;101829.19;;;35.42;39.23
62418;BME280;48456;54.242;10.280;2023-07-09T11:58:49;101828.72;;;35.76;39.68
62418;BME280;48456;54.242;10.280;2023-07-09T12:01:17;101824.53;;;35.52;37.70
62418;BME280;48456;54.242;10.280;2023-07-09T12:03:44;101823.50;;;35.73;39.59
62418;BME280;48456;54.242;10.280;2023-07-09T12:08:44;101824.66;;;35.70;39.76
62418;BME280;48456;54.242;10.280;2023-07-09T12:11:18;101818.44;;;34.89;36.31
62418;BME280;48456;54.242;10.280;2023-07-09T12:13:45;101800.31;;;35.75;38.16
62418;BME280;48456;54.242;10.280;2023-07-09T12:16:22;101814.97;;;35.66;36.57
62418;BME280;48456;54.242;10.280;2023-07-09T12:18:49;101808.31;;;35.69;36.99
62418;BME280;48456;54.242;10.280;2023-07-09T12:21:15;101811.34;;;36.41;37.43
62418;BME280;48456;54.242;10.280;2023-07-09T12:23:42;101810.28;;;36.52;36.52
62418;BME280;48456;54.242;10.280;2023-07-09T12:26:14;101823.41;;;36.69;36.98
62418;BME280;48456;54.242;10.280;2023-07-09T12:28:40;101812.09;;;37.08;35.57
62418;BME280;48456;54.242;10.280;2023-07-09T12:31:16;101806.97;;;36.77;34.23
62418;BME280;48456;54.242;10.280;2023-07-09T12:33:49;101807.53;;;36.99;34.05
62418;BME280;48456;54.242;10.280;2023-07-09T12:36:16;101807.66;;;37.34;33.17
62418;BME280;48456;54.242;10.280;2023-07-09T12:38:45;101791.38;;;36.39;34.22
62418;BME280;48456;54.242;10.280;2023-07-09T12:43:57;101786.16;;;36.83;33.03
62418;BME280;48456;54.242;10.280;2023-07-09T12:46:24;101796.94;;;36.94;34.76
62418;BME280;48456;54.242;10.280;2023-07-09T12:48:51;101781.72;;;36.53;33.87
62418;BME280;48456;54.242;10.280;2023-07-09T12:51:24;101783.16;;;36.58;32.76
62418;BME280;48456;54.242;10.280;2023-07-09T12:54:05;101786.59;;;36.60;36.09
62418;BME280;48456;54.242;10.280;2023-07-09T12:56:39;101783.81;;;36.88;33.31
62418;BME280;48456;54.242;10.280;2023-07-09T12:59:25;101786.03;;;36.38;33.71
62418;BME280;48456;54.242;10.280;2023-07-09T13:01:56;101783.75;;;36.79;34.04
62418;BME280;48456;54.242;10.280;2023-07-09T13:04:27;101782.09;;;36.69;33.86
62418;BME280;48456;54.242;10.280;2023-07-09T13:06:54;101776.13;;;36.45;32.58
62418;BME280;48456;54.242;10.280;2023-07-09T13:09:26;101780.63;;;36.64;32.48
62418;BME280;48456;54.242;10.280;2023-07-09T13:11:53;101775.19;;;37.09;34.02
62418;BME280;48456;54.242;10.280;2023-07-09T13:14:24;101775.16;;;37.19;33.54
62418;BME280;48456;54.242;10.280;2023-07-09T13:16:51;101780.34;;;36.86;33.23
62418;BME280;48456;54.242;10.280;2023-07-09T13:19:18;101781.13;;;37.14;31.76
62418;BME280;48456;54.242;10.280;2023-07-09T13:21:45;101779.78;;;37.00;33.85
62418;BME280;48456;54.242;10.280;2023-07-09T13:24:19;101778.75;;;37.01;34.13
62418;BME280;48456;54.242;10.280;2023-07-09T13:26:48;101771.22;;;36.39;32.57